Time;durP1;ratioP1;P1;durP2;ratioP2;P2;SDS_P1;SDS_P2;PMS_P1;PMS_P2;Temp;Humidity;BMP_temperature;BMP_pressure;BME280_temperature;BME280_humidity;BME280_pressure;Samples;Min_cycle;Max_cycle;Signal;HPM_P1;HPM_P2
2022/01/15 00:00:18;;;;;;;17.10;3.10;;;;;;;0.16;81.89;100989.49;87840;1284;99676;-56
2022/01/15 00:02:44;;;;;;;11.40;2.80;;;;;;;0.10;81.87;100985.27;87822;1284;88735;-57
2022/01/15 00:04:50;;;;;;;6.70;2.40;;;;;;;0.04;81.81;100983.98;87779;1284;93636;-56
2022/01/15 00:06:56;;;;;;;11.60;2.80;;;;;;;-0.01;81.84;100987.16;87815;1284;80809;-56
2022/01/15 00:09:06;;;;;;;9.90;2.60;;;;;;;-0.07;81.89;100985.42;87855;1284;81193;-57
2022/01/15 00:11:15;;;;;;;8.50;2.80;;;;;;;-0.09;81.72;100981.51;87821;1283;99344;-56
2022/01/15 00:13:28;;;;;;;12.20;3.00;;;;;;;-0.09;81.85;100985.56;87807;1284;89055;-56
2022/01/15 00:15:37;;;;;;;10.80;2.70;;;;;;;-0.05;82.04;100991.33;87833;1283;97026;-55
2022/01/15 00:17:47;;;;;;;12.60;3.30;;;;;;;-0.01;82.03;100984.14;87767;1284;78880;-55
2022/01/15 00:19:52;;;;;;;12.10;3.40;;;;;;;0.01;81.95;100986.98;87859;1284;82900;-62
2022/01/15 00:21:58;;;;;;;11.10;2.90;;;;;;;-0.01;82.07;100990.14;87748;1284;99237;-62
2022/01/15 00:24:09;;;;;;;13.30;3.70;;;;;;;-0.02;82.03;100987.90;87807;1284;88580;-56
2022/01/15 00:26:14;;;;;;;11.60;2.60;;;;;;;-0.04;82.01;100981.88;87828;1282;94874;-56
2022/01/15 00:28:20;;;;;;;14.00;2.90;;;;;;;-0.09;81.94;100990.69;87813;1284;76478;-55
2022/01/15 00:30:27;;;;;;;10.60;3.10;;;;;;;-0.09;82.01;100990.15;87814;1284;83727;-56
2022/01/15 00:32:37;;;;;;;9.50;2.50;;;;;;;-0.13;82.01;100985.13;87753;1284;99292;-56
2022/01/15 00:34:46;;;;;;;10.10;2.50;;;;;;;-0.14;81.88;100982.73;87849;1283;86629;-57
2022/01/15 00:36:56;;;;;;;12.20;4.10;;;;;;;-0.16;81.97;100989.09;87792;1284;92601;-56
2022/01/15 00:39:02;;;;;;;8.70;2.90;;;;;;;-0.18;81.96;100991.32;87834;1284;78696;-62
2022/01/15 00:41:11;;;;;;;6.30;2.70;;;;;;;-0.19;82.05;100980.08;87835;1283;82670;-61
2022/01/15 00:43:20;;;;;;;14.90;3.40;;;;;;;-0.17;82.07;100977.98;87815;1284;100606;-62
2022/01/15 00:45:32;;;;;;;10.80;3.00;;;;;;;-0.13;82.29;100981.94;87832;1284;88761;-63
2022/01/15 00:47:42;;;;;;;8.80;2.80;;;;;;;-0.12;82.17;100975.17;87817;1283;94112;-62
2022/01/15 00:49:51;;;;;;;10.50;2.90;;;;;;;-0.13;82.15;100981.63;87826;1284;77029;-56
2022/01/15 00:51:57;;;;;;;8.70;3.50;;;;;;;-0.13;82.13;100983.73;87868;1283;80144;-55
2022/01/15 00:54:04;;;;;;;9.50;3.20;;;;;;;-0.16;82.04;100974.58;87786;1284;99982;-56
2022/01/15 00:56:10;;;;;;;11.60;3.30;;;;;;;-0.20;82.00;100976.13;87851;1284;86284;-56
2022/01/15 00:58:18;;;;;;;13.90;4.40;;;;;;;-0.22;82.05;100980.30;87822;1284;95554;-61
2022/01/15 01:00:26;;;;;;;8.30;2.30;;;;;;;-0.26;81.97;100973.31;87811;1283;80547;-60
2022/01/15 01:02:32;;;;;;;8.60;2.60;;;;;;;-0.27;82.04;100973.61;87838;1284;83016;-62
2022/01/15 01:04:41;;;;;;;8.90;2.30;;;;;;;-0.27;81.95;100978.70;87825;1284;102106;-56
2022/01/15 01:06:47;;;;;;;10.90;3.00;;;;;;;-0.26;82.03;100979.16;87842;1284;89078;-56
2022/01/15 01:08:52;;;;;;;8.90;2.30;;;;;;;-0.24;82.01;100973.55;87846;1284;95828;-62
2022/01/15 01:11:02;;;;;;;8.80;2.60;;;;;;;-0.20;82.12;100979.47;87806;1284;81494;-61
2022/01/15 01:13:16;;;;;;;8.90;2.80;;;;;;;-0.16;82.26;100988.35;87860;1283;82148;-56
2022/01/15 01:20:37;;;;;;;9.70;3.40;;;;;;;-0.16;82.21;100986.48;87223;1287;93989;-61
2022/01/15 01:22:55;;;;;;;11.30;2.90;;;;;;;-0.18;82.22;100991.88;87200;1287;77292;-62
2022/01/15 01:25:02;;;;;;;8.80;2.90;;;;;;;-0.23;82.10;100985.17;87244;1287;83194;-56
2022/01/15 01:27:16;;;;;;;12.80;3.70;;;;;;;-0.29;82.15;100988.39;87251;1287;99492;-56
2022/01/15 01:29:35;;;;;;;10.40;3.10;;;;;;;-0.33;82.22;100988.47;87235;1287;87675;-54
2022/01/15 01:31:54;;;;;;;9.80;2.70;;;;;;;-0.36;82.34;100989.27;87259;1287;96383;-54
2022/01/15 01:34:07;;;;;;;11.70;3.40;;;;;;;-0.36;82.32;100998.14;87215;1287;78331;-61
2022/01/15 01:36:19;;;;;;;11.60;2.80;;;;;;;-0.38;82.43;100993.48;87248;1287;80167;-62
2022/01/15 01:38:29;;;;;;;7.90;2.80;;;;;;;-0.34;82.53;100993.55;87271;1287;100844;-60
2022/01/15 01:40:40;;;;;;;11.60;3.00;;;;;;;-0.30;82.54;100997.02;87246;1287;89873;-62
2022/01/15 01:42:57;;;;;;;9.30;2.90;;;;;;;-0.31;82.53;100995.95;87246;1287;94731;-61
2022/01/15 01:45:14;;;;;;;9.70;3.00;;;;;;;-0.33;82.63;100991.70;87237;1287;77994;-62
2022/01/15 01:47:31;;;;;;;8.90;3.00;;;;;;;-0.34;82.70;100993.70;87175;1289;80607;-62
2022/01/15 01:49:38;;;;;;;11.10;2.80;;;;;;;-0.33;82.77;100994.21;87271;1287;100342;-57
2022/01/15 01:51:45;;;;;;;12.50;3.20;;;;;;;-0.36;82.67;100994.38;87294;1284;88171;-55
2022/01/15 01:53:55;;;;;;;11.90;2.90;;;;;;;-0.43;82.59;100989.02;87669;1284;95294;-56
2022/01/15 01:56:05;;;;;;;13.00;3.80;;;;;;;-0.47;82.73;100991.42;87763;1284;81784;-56
2022/01/15 01:58:10;;;;;;;10.50;2.90;;;;;;;-0.47;82.80;101001.02;87806;1283;84047;-62
2022/01/15 02:00:19;;;;;;;11.90;3.60;;;;;;;-0.48;82.87;100998.40;87803;1283;100460;-61
2022/01/15 02:02:28;;;;;;;13.10;3.20;;;;;;;-0.49;82.90;100992.96;87824;1284;87194;-62
2022/01/15 02:04:34;;;;;;;12.20;3.40;;;;;;;-0.46;83.03;100993.69;87783;1284;94155;-54
2022/01/15 02:06:43;;;;;;;13.20;3.10;;;;;;;-0.43;83.11;101000.17;87837;1283;77793;-56
2022/01/15 02:08:50;;;;;;;9.70;2.90;;;;;;;-0.39;83.18;100994.98;87791;1284;82378;-56
2022/01/15 02:10:58;;;;;;;12.40;3.20;;;;;;;-0.40;83.23;100995.89;87807;1283;100653;-56
2022/01/15 02:13:08;;;;;;;13.60;3.30;;;;;;;-0.38;83.27;100994.73;87866;1283;88592;-58
2022/01/15 02:15:16;;;;;;;8.70;3.20;;;;;;;-0.37;83.32;100991.30;87809;1283;94708;-55
2022/01/15 02:17:26;;;;;;;11.60;3.30;;;;;;;-0.41;83.31;100994.42;87846;1283;77986;-56
2022/01/15 02:19:33;;;;;;;8.80;3.60;;;;;;;-0.45;83.21;100992.89;87835;1283;79623;-56
2022/01/15 02:24:07;;;;;;;12.80;3.20;;;;;;;-0.55;83.33;100985.81;87796;1283;89432;-63
2022/01/15 02:26:18;;;;;;;15.70;3.80;;;;;;;-0.59;83.35;100984.16;87828;1283;94076;-61
2022/01/15 02:28:27;;;;;;;14.00;3.60;;;;;;;-0.61;83.36;100975.77;87789;1283;79082;-56
2022/01/15 02:30:36;;;;;;;8.70;2.20;;;;;;;-0.62;83.55;100975.62;87821;1283;80866;-55
2022/01/15 02:32:42;;;;;;;14.50;2.80;;;;;;;-0.60;83.67;100977.25;87831;1283;100597;-56
2022/01/15 02:34:50;;;;;;;11.20;3.20;;;;;;;-0.54;83.67;100988.06;87814;1283;87596;-61
2022/01/15 02:36:56;;;;;;;10.90;2.80;;;;;;;-0.49;83.78;100990.90;87797;1283;95538;-61
2022/01/15 02:39:03;;;;;;;10.20;2.70;;;;;;;-0.49;83.79;100989.27;87822;1284;78117;-56
2022/01/15 02:41:10;;;;;;;11.60;3.30;;;;;;;-0.46;83.76;100989.27;87762;1284;79797;-54
2022/01/15 02:43:28;;;;;;;9.30;2.70;;;;;;;-0.47;83.59;100989.48;87835;1283;97898;-56
2022/01/15 02:45:38;;;;;;;12.60;2.90;;;;;;;-0.50;83.76;100990.77;87824;1283;87083;-56
2022/01/15 02:48:03;;;;;;;12.40;2.50;;;;;;;-0.55;83.62;100989.54;87828;1283;94152;-56
2022/01/15 02:50:11;;;;;;;10.10;3.00;;;;;;;-0.62;83.59;100988.92;87780;1283;79336;-56
2022/01/15 02:52:16;;;;;;;13.30;2.80;;;;;;;-0.65;83.61;100991.73;87821;1283;80638;-54
2022/01/15 02:54:22;;;;;;;12.90;3.90;;;;;;;-0.66;83.84;100991.63;87823;1283;99329;-54
2022/01/15 02:56:35;;;;;;;11.00;2.90;;;;;;;-0.63;83.92;100991.96;87554;1284;88086;-55
2022/01/15 02:58:44;;;;;;;12.70;2.70;;;;;;;-0.60;83.97;100991.61;87823;1283;94351;-62
2022/01/15 03:00:54;;;;;;;10.90;2.60;;;;;;;-0.59;83.92;100988.88;87789;1283;79450;-62
2022/01/15 03:03:02;;;;;;;11.00;2.50;;;;;;;-0.57;83.91;100987.69;87770;1284;83351;-60
2022/01/15 03:05:13;;;;;;;10.60;2.50;;;;;;;-0.56;84.11;100989.05;87839;1283;100240;-56
2022/01/15 03:07:19;;;;;;;10.00;3.40;;;;;;;-0.53;84.06;100993.48;87787;1283;87141;-56
2022/01/15 03:09:24;;;;;;;9.30;2.50;;;;;;;-0.53;84.01;100994.73;87795;1283;95986;-55
2022/01/15 03:11:30;;;;;;;9.30;2.50;;;;;;;-0.58;83.87;100992.73;87823;1283;78475;-56
2022/01/15 03:13:37;;;;;;;12.60;2.70;;;;;;;-0.61;83.89;100990.29;87773;1283;82491;-62
2022/01/15 03:15:43;;;;;;;12.00;2.20;;;;;;;-0.64;83.96;100992.06;87848;1283;98893;-61
2022/01/15 03:17:50;;;;;;;10.80;3.40;;;;;;;-0.69;84.04;100990.08;87859;1283;88719;-62
2022/01/15 03:19:58;;;;;;;13.60;2.90;;;;;;;-0.70;84.04;100989.64;87777;1283;95451;-62
2022/01/15 03:22:07;;;;;;;11.70;2.80;;;;;;;-0.70;84.03;100992.14;87808;1283;78999;-62
2022/01/15 03:24:13;;;;;;;11.70;2.90;;;;;;;-0.71;84.08;100995.16;87843;1283;83226;-62
2022/01/15 03:26:18;;;;;;;12.30;2.80;;;;;;;-0.70;84.14;100994.25;87823;1283;99847;-62
2022/01/15 03:28:27;;;;;;;14.20;3.30;;;;;;;-0.68;84.07;100990.95;87817;1283;89474;-62
2022/01/15 03:30:33;;;;;;;13.20;3.00;;;;;;;-0.67;84.17;100991.16;87812;1283;94766;-62
2022/01/15 03:32:43;;;;;;;10.90;3.00;;;;;;;-0.65;84.15;100994.45;87841;1283;76577;-62
2022/01/15 03:34:52;;;;;;;12.50;3.30;;;;;;;-0.67;84.21;100995.64;87796;1283;83012;-62
2022/01/15 03:36:58;;;;;;;13.40;4.30;;;;;;;-0.70;84.23;100994.98;87820;1283;99162;-62
2022/01/15 03:39:04;;;;;;;10.60;2.90;;;;;;;-0.76;84.25;101000.42;87865;1283;87225;-62
2022/01/15 03:41:10;;;;;;;11.80;3.50;;;;;;;-0.82;84.27;100992.05;87766;1283;94575;-63
2022/01/15 03:43:16;;;;;;;12.40;3.10;;;;;;;-0.88;84.28;100993.15;87824;1283;79042;-63
2022/01/15 03:45:25;;;;;;;15.60;3.70;;;;;;;-0.92;84.24;100998.05;87817;1282;80280;-63
2022/01/15 03:47:33;;;;;;;9.20;2.90;;;;;;;-0.97;84.27;101001.36;87840;1283;99612;-63
2022/01/15 03:49:41;;;;;;;12.20;2.80;;;;;;;-1.01;84.39;101000.94;87834;1283;88757;-63
2022/01/15 03:51:47;;;;;;;12.00;3.40;;;;;;;-1.02;84.65;100989.17;87826;1283;95024;-61
2022/01/15 03:53:53;;;;;;;12.10;3.00;;;;;;;-0.98;84.74;100996.67;87801;1283;80503;-62
2022/01/15 03:56:02;;;;;;;13.40;3.00;;;;;;;-0.96;84.84;100994.22;87838;1283;83608;-61
2022/01/15 03:58:10;;;;;;;12.10;2.80;;;;;;;-0.91;84.75;101000.09;87813;1283;99380;-54
2022/01/15 04:00:20;;;;;;;11.30;3.90;;;;;;;-0.89;84.85;101011.09;87819;1283;87162;-56
2022/01/15 04:02:26;;;;;;;15.30;3.90;;;;;;;-0.90;84.66;101017.87;87843;1283;95834;-56
2022/01/15 04:04:32;;;;;;;12.50;4.60;;;;;;;-0.92;84.61;101017.81;87621;1283;285454;-55
2022/01/15 04:06:38;;;;;;;13.80;3.70;;;;;;;-0.92;84.73;101011.28;87860;1283;81328;-56
2022/01/15 04:08:44;;;;;;;12.10;4.30;;;;;;;-0.94;84.80;101014.45;87841;1283;99759;-62
2022/01/15 04:10:52;;;;;;;12.80;3.70;;;;;;;-1.00;84.60;101015.75;87837;1283;88323;-61
2022/01/15 04:13:00;;;;;;;14.30;3.80;;;;;;;-1.06;84.74;101017.02;87814;1280;93413;-59
2022/01/15 04:15:13;;;;;;;15.40;3.40;;;;;;;-1.09;84.69;101011.92;87791;1283;78256;-62
2022/01/15 04:17:22;;;;;;;15.10;3.50;;;;;;;-1.11;84.64;101013.63;87777;1283;83240;-62
2022/01/15 04:19:29;;;;;;;10.30;4.00;;;;;;;-1.13;84.79;101020.33;87826;1283;99110;-62
2022/01/15 04:21:38;;;;;;;10.10;3.60;;;;;;;-1.13;84.95;101021.88;87826;1283;87621;-61
2022/01/15 04:23:44;;;;;;;20.10;5.30;;;;;;;-1.14;85.03;101025.32;87828;1282;95420;-62
2022/01/15 04:25:50;;;;;;;14.10;4.50;;;;;;;-1.13;85.01;101028.97;87830;1283;78259;-62
2022/01/15 04:28:02;;;;;;;15.40;5.40;;;;;;;-1.12;85.00;101029.98;87822;1283;80716;-63
2022/01/15 04:30:12;;;;;;;13.10;4.30;;;;;;;-1.14;85.10;101034.51;87835;1283;99234;-62
2022/01/15 04:32:21;;;;;;;19.60;4.80;;;;;;;-1.15;85.29;101038.64;87848;1283;88076;-62
2022/01/15 04:34:31;;;;;;;11.10;4.50;;;;;;;-1.20;85.07;101044.98;87814;1283;95489;-56
2022/01/15 04:36:40;;;;;;;12.20;4.40;;;;;;;-1.24;85.17;101046.64;87813;1283;78392;-56
2022/01/15 04:38:49;;;;;;;14.70;4.70;;;;;;;-1.28;85.08;101047.09;87751;1284;80395;-56
2022/01/15 04:40:54;;;;;;;13.80;3.70;;;;;;;-1.31;85.14;101053.11;87792;1283;100674;-55
2022/01/15 04:43:03;;;;;;;12.00;3.70;;;;;;;-1.35;85.14;101056.02;87776;1284;87914;-61
2022/01/15 04:45:10;;;;;;;11.10;3.30;;;;;;;-1.36;85.11;101052.35;87800;1283;93350;-61
2022/01/15 04:47:16;;;;;;;10.50;4.20;;;;;;;-1.36;85.35;101046.52;87848;1283;77728;-62
2022/01/15 04:49:21;;;;;;;14.50;4.10;;;;;;;-1.34;85.34;101047.42;87843;1283;81468;-63
2022/01/15 04:51:27;;;;;;;10.60;3.70;;;;;;;-1.32;85.62;101046.96;87794;1283;100880;-63
2022/01/15 04:53:33;;;;;;;13.00;4.80;;;;;;;-1.28;85.69;101045.98;87834;1283;88433;-57
2022/01/15 04:55:39;;;;;;;13.10;4.00;;;;;;;-1.24;85.52;101047.54;87821;1283;93836;-54
2022/01/15 04:57:45;;;;;;;14.40;4.20;;;;;;;-1.21;85.61;101053.83;87788;1283;77114;-55
2022/01/15 04:59:54;;;;;;;15.50;5.60;;;;;;;-1.20;85.62;101061.08;87847;1283;82087;-56
2022/01/15 05:02:00;;;;;;;11.90;4.20;;;;;;;-1.22;85.49;101064.20;87585;1284;100117;-56
2022/01/15 05:04:06;;;;;;;15.50;5.30;;;;;;;-1.27;85.43;101066.95;87805;1283;88638;-62
2022/01/15 05:06:12;;;;;;;13.40;4.40;;;;;;;-1.32;85.47;101070.50;87855;1283;94810;-62
2022/01/15 05:08:21;;;;;;;16.90;4.60;;;;;;;-1.38;85.38;101072.10;87802;1283;81574;-56
2022/01/15 05:10:28;;;;;;;11.80;3.90;;;;;;;-1.42;85.55;101078.19;87842;1283;80213;-56
2022/01/15 05:12:42;;;;;;;14.60;4.60;;;;;;;-1.43;85.63;101080.55;87810;1283;99864;-55
2022/01/15 05:14:51;;;;;;;11.30;4.00;;;;;;;-1.43;85.74;101086.35;87818;1283;88126;-55
2022/01/15 05:16:56;;;;;;;12.50;4.20;;;;;;;-1.42;85.74;101091.59;87724;1284;95018;-55
2022/01/15 05:19:02;;;;;;;13.00;3.80;;;;;;;-1.39;86.00;101094.95;87759;1283;79011;-61
2022/01/15 05:21:08;;;;;;;14.90;3.80;;;;;;;-1.37;85.90;101097.98;87837;1283;80712;-61
2022/01/15 05:23:16;;;;;;;17.70;4.30;;;;;;;-1.35;85.99;101096.14;87719;1284;100218;-56
2022/01/15 05:25:25;;;;;;;14.40;3.60;;;;;;;-1.31;86.09;101099.54;87830;1283;88694;-57
2022/01/15 05:27:36;;;;;;;13.90;4.30;;;;;;;-1.28;85.98;101103.27;87719;1284;93125;-56
2022/01/15 05:29:41;;;;;;;15.40;4.80;;;;;;;-1.26;85.86;101101.67;87808;1283;77009;-56
2022/01/15 05:31:47;;;;;;;13.20;4.50;;;;;;;-1.24;85.97;101103.37;87812;1283;81609;-56
2022/01/15 05:33:53;;;;;;;10.90;4.80;;;;;;;-1.26;85.98;101103.27;87816;1283;100423;-64
2022/01/15 05:36:02;;;;;;;18.40;5.40;;;;;;;-1.28;86.09;101108.56;87814;1283;87509;-62
2022/01/15 05:38:07;;;;;;;13.50;4.30;;;;;;;-1.27;86.00;101109.76;87762;1283;95240;-63
2022/01/15 05:40:16;;;;;;;13.40;4.50;;;;;;;-1.30;85.97;101105.67;87722;1283;79275;-61
2022/01/15 05:42:25;;;;;;;14.70;4.10;;;;;;;-1.32;85.94;101107.94;87813;1283;82314;-61
2022/01/15 05:44:30;;;;;;;12.20;3.80;;;;;;;-1.33;85.90;101106.95;87798;1283;101010;-62
2022/01/15 05:46:36;;;;;;;9.90;3.90;;;;;;;-1.35;86.14;101108.46;87806;1283;87506;-66
2022/01/15 05:48:45;;;;;;;10.40;3.30;;;;;;;-1.32;85.99;101112.48;87794;1283;94708;-56
2022/01/15 05:50:50;;;;;;;15.70;3.80;;;;;;;-1.29;86.10;101117.85;87565;1284;80607;-56
2022/01/15 05:52:58;;;;;;;14.70;3.80;;;;;;;-1.26;86.24;101117.08;87650;1283;82271;-56
2022/01/15 05:55:06;;;;;;;16.00;5.30;;;;;;;-1.24;86.38;101120.83;87789;1282;100566;-63
2022/01/15 05:57:12;;;;;;;13.50;4.00;;;;;;;-1.24;86.34;101120.84;87813;1283;86699;-61
2022/01/15 05:59:20;;;;;;;15.90;4.10;;;;;;;-1.25;86.07;101112.96;87813;1283;97271;-56
2022/01/15 06:01:26;;;;;;;10.10;3.80;;;;;;;-1.26;86.29;101117.64;87768;1283;78004;-56
2022/01/15 06:03:34;;;;;;;14.00;5.20;;;;;;;-1.29;86.06;101109.51;87826;1283;80242;-64
2022/01/15 06:05:43;;;;;;;18.30;5.00;;;;;;;-1.35;86.14;101110.94;87780;1283;99164;-63
2022/01/15 06:07:48;;;;;;;13.00;4.40;;;;;;;-1.40;86.27;101110.42;87807;1283;89521;-63
2022/01/15 06:09:54;;;;;;;13.90;4.50;;;;;;;-1.45;86.22;101111.55;87782;1283;95384;-62
2022/01/15 06:12:01;;;;;;;13.20;4.30;;;;;;;-1.43;86.13;101114.48;87784;1283;79182;-63
2022/01/15 06:14:07;;;;;;;15.30;4.10;;;;;;;-1.43;86.19;101117.45;87800;1283;82533;-56
2022/01/15 06:16:12;;;;;;;13.50;4.90;;;;;;;-1.41;86.24;101120.35;87777;1283;100707;-56
2022/01/15 06:18:18;;;;;;;17.90;5.40;;;;;;;-1.37;86.33;101121.67;87694;1284;89328;-61
2022/01/15 06:20:24;;;;;;;12.10;3.90;;;;;;;-1.33;86.53;101117.71;87763;1283;93564;-62
2022/01/15 06:22:29;;;;;;;15.70;4.50;;;;;;;-1.29;86.38;101119.08;87765;1283;78997;-62
2022/01/15 06:24:35;;;;;;;14.00;4.60;;;;;;;-1.24;86.48;101121.03;87821;1283;83465;-57
2022/01/15 06:26:41;;;;;;;14.10;4.70;;;;;;;-1.26;86.33;101125.92;87772;1283;99187;-54
2022/01/15 06:28:50;;;;;;;16.30;4.90;;;;;;;-1.30;86.42;101127.18;87768;1282;87984;-56
2022/01/15 06:30:55;;;;;;;14.00;4.90;;;;;;;-1.35;86.37;101127.52;87792;1283;95240;-58
2022/01/15 06:33:05;;;;;;;18.50;5.20;;;;;;;-1.39;86.20;101135.02;87751;1283;80510;-56
2022/01/15 06:35:17;;;;;;;13.70;4.60;;;;;;;-1.42;86.43;101132.91;87787;1283;81909;-56
2022/01/15 06:37:23;;;;;;;13.10;4.10;;;;;;;-1.46;86.25;101134.45;87809;1283;99101;-57
2022/01/15 06:39:28;;;;;;;12.60;3.90;;;;;;;-1.50;86.24;101133.13;87769;1283;88121;-56
2022/01/15 06:41:37;;;;;;;12.30;3.70;;;;;;;-1.52;86.44;101135.88;87772;1283;95597;-57
2022/01/15 06:43:46;;;;;;;13.80;4.30;;;;;;;-1.49;86.50;101136.71;87782;1283;80008;-64
2022/01/15 06:45:51;;;;;;;10.50;3.60;;;;;;;-1.45;86.52;101139.30;87786;1283;81937;-61
2022/01/15 06:48:07;;;;;;;13.40;3.90;;;;;;;-1.38;86.61;101144.84;87782;1282;101000;-65
2022/01/15 06:50:14;;;;;;;14.10;4.20;;;;;;;-1.33;86.53;101142.80;87804;1282;89732;-55
2022/01/15 06:52:21;;;;;;;15.20;3.90;;;;;;;-1.30;86.43;101144.55;87796;1283;94179;-56
2022/01/15 06:54:26;;;;;;;11.60;4.50;;;;;;;-1.28;86.65;101146.91;87803;1283;76217;-64
2022/01/15 06:56:35;;;;;;;15.60;5.00;;;;;;;-1.23;86.61;101146.56;87786;1283;81826;-63
2022/01/15 06:58:43;;;;;;;13.40;4.10;;;;;;;-1.20;86.62;101142.15;87796;1283;98112;-56
2022/01/15 07:00:52;;;;;;;12.90;4.20;;;;;;;-1.19;86.43;101144.92;87788;1282;89881;-58
2022/01/15 07:03:02;;;;;;;11.90;3.70;;;;;;;-1.19;86.32;101140.83;87791;1283;93625;-58
2022/01/15 07:05:14;;;;;;;12.30;4.40;;;;;;;-1.20;86.42;101148.33;87808;1283;80447;-57
2022/01/15 07:07:25;;;;;;;14.90;4.30;;;;;;;-1.21;86.23;101153.34;87838;1283;81848;-56
2022/01/15 07:09:31;;;;;;;14.00;4.80;;;;;;;-1.22;86.26;101152.17;87785;1283;99459;-56
2022/01/15 07:11:36;;;;;;;14.50;3.80;;;;;;;-1.18;86.28;101158.84;87815;1283;89261;-57
2022/01/15 07:13:42;;;;;;;14.70;4.10;;;;;;;-1.14;86.53;101165.08;87648;1283;93491;-65
2022/01/15 07:15:47;;;;;;;14.70;4.30;;;;;;;-1.06;86.33;101171.28;87792;1283;79778;-65
2022/01/15 07:17:53;;;;;;;20.10;5.10;;;;;;;-1.00;86.49;101167.59;87820;1283;80733;-64
2022/01/15 07:20:01;;;;;;;12.50;4.80;;;;;;;-0.96;86.53;101168.52;87797;1283;101066;-56
2022/01/15 07:22:09;;;;;;;16.70;5.90;;;;;;;-0.91;86.48;101166.62;87689;1283;89422;-56
2022/01/15 07:24:16;;;;;;;16.90;5.50;;;;;;;-0.80;86.43;101169.65;87710;1283;95208;-63
2022/01/15 07:26:25;;;;;;;17.40;5.90;;;;;;;-0.65;86.50;101175.17;87771;1283;77741;-64
2022/01/15 07:28:34;;;;;;;23.00;5.40;;;;;;;-0.39;86.50;101169.92;87827;1283;83386;-57
2022/01/15 07:30:40;;;;;;;13.20;5.50;;;;;;;0.05;86.51;101171.77;87821;1283;98064;-57
2022/01/15 07:32:47;;;;;;;18.40;5.80;;;;;;;0.42;86.22;101168.13;87791;1283;88970;-55
2022/01/15 07:34:52;;;;;;;15.00;4.50;;;;;;;1.07;86.32;101169.72;87678;1283;94839;-64
2022/01/15 07:36:59;;;;;;;13.40;4.70;;;;;;;1.82;85.78;101174.05;87663;1284;78373;-64
2022/01/15 07:39:06;;;;;;;14.40;4.80;;;;;;;2.39;85.33;101174.33;87800;1282;79711;-57
2022/01/15 07:41:13;;;;;;;18.60;5.40;;;;;;;2.59;84.33;101177.20;87779;1283;100014;-56
2022/01/15 07:43:19;;;;;;;14.40;5.90;;;;;;;3.11;84.55;101178.38;87844;1283;88567;-56
2022/01/15 07:45:25;;;;;;;17.40;5.30;;;;;;;4.02;84.25;101175.05;87768;1283;94978;-58
2022/01/15 07:47:34;;;;;;;16.80;4.60;;;;;;;4.93;83.67;101176.79;87685;1283;76980;-56
2022/01/15 07:49:43;;;;;;;14.70;4.60;;;;;;;5.60;82.93;101177.08;87828;1283;82551;-57
2022/01/15 07:51:52;;;;;;;15.40;4.80;;;;;;;6.12;81.84;101178.29;87782;1283;100284;-58
2022/01/15 07:53:57;;;;;;;13.40;4.80;;;;;;;6.58;80.72;101177.73;87845;1283;89064;-57
2022/01/15 07:56:03;;;;;;;14.60;4.90;;;;;;;7.16;80.05;101176.59;87817;1282;94970;-57
2022/01/15 07:58:10;;;;;;;11.20;4.70;;;;;;;7.59;79.36;101182.38;87818;1283;78025;-68
2022/01/15 08:00:17;;;;;;;13.90;5.50;;;;;;;8.04;78.35;101184.87;87823;1283;81514;-64
2022/01/15 08:02:24;;;;;;;14.80;5.10;;;;;;;8.39;77.29;101188.85;87796;1283;100513;-66
2022/01/15 08:04:30;;;;;;;12.10;4.70;;;;;;;8.27;76.55;101194.33;87813;1283;88035;-64
2022/01/15 08:06:39;;;;;;;13.90;5.10;;;;;;;8.27;75.97;101189.30;87807;1283;93191;-64
2022/01/15 08:08:45;;;;;;;13.90;6.20;;;;;;;8.67;75.07;101187.56;87802;1283;78099;-64
2022/01/15 08:10:51;;;;;;;11.80;4.90;;;;;;;8.69;74.04;101190.52;87738;1283;81366;-65
2022/01/15 08:12:57;;;;;;;13.80;6.80;;;;;;;8.72;73.54;101188.45;87808;1283;101012;-64
2022/01/15 08:15:03;;;;;;;11.00;5.50;;;;;;;8.73;73.02;101189.10;87832;1283;89223;-64
2022/01/15 08:17:09;;;;;;;11.20;5.10;;;;;;;8.61;71.65;101185.98;87819;1283;93658;-64
2022/01/15 08:19:14;;;;;;;13.00;6.00;;;;;;;8.33;71.34;101190.16;87821;1283;78580;-57
2022/01/15 08:21:21;;;;;;;14.30;6.30;;;;;;;8.17;69.75;101191.19;87791;1283;81215;-55
2022/01/15 08:23:27;;;;;;;11.20;5.40;;;;;;;8.08;70.81;101185.74;87819;1283;99477;-56
2022/01/15 08:25:33;;;;;;;14.20;5.80;;;;;;;7.41;70.79;101195.29;87809;1283;88231;-55
2022/01/15 08:27:38;;;;;;;12.70;5.50;;;;;;;6.68;70.84;101203.82;87813;1282;94333;-58
2022/01/15 08:29:44;;;;;;;13.50;5.60;;;;;;;5.84;71.21;101211.86;87837;1283;79072;-57
2022/01/15 08:31:50;;;;;;;13.10;4.90;;;;;;;5.19;71.91;101219.45;87702;1283;79970;-57
2022/01/15 08:33:56;;;;;;;11.80;5.40;;;;;;;4.80;72.06;101215.06;87659;1283;101318;-64
2022/01/15 08:36:01;;;;;;;12.40;6.30;;;;;;;4.45;72.28;101210.77;87845;1283;89281;-65
2022/01/15 08:38:08;;;;;;;17.40;6.00;;;;;;;4.06;73.06;101219.97;87845;1283;95991;-57
2022/01/15 08:40:16;;;;;;;13.70;5.40;;;;;;;3.79;73.48;101217.27;87807;1283;79480;-56
2022/01/15 08:42:22;;;;;;;17.00;7.30;;;;;;;3.78;74.35;101215.35;87712;1283;82628;-57
2022/01/15 08:44:31;;;;;;;13.60;5.40;;;;;;;3.99;74.66;101214.20;87802;1283;99879;-57
2022/01/15 08:46:36;;;;;;;14.60;4.90;;;;;;;4.79;74.87;101206.38;87813;1283;89396;-56
2022/01/15 08:48:42;;;;;;;12.70;5.00;;;;;;;5.68;74.74;101207.37;87814;1283;94893;-65
2022/01/15 08:50:48;;;;;;;12.70;5.60;;;;;;;6.36;74.11;101201.09;87820;1282;79218;-65
2022/01/15 08:52:54;;;;;;;12.40;4.70;;;;;;;7.06;73.00;101198.38;87844;1283;81601;-61
2022/01/15 08:54:59;;;;;;;13.00;5.10;;;;;;;7.33;72.02;101203.92;87823;1283;100578;-64
2022/01/15 08:57:06;;;;;;;12.80;5.90;;;;;;;7.45;71.45;101205.08;87679;1283;88089;-63
2022/01/15 08:59:12;;;;;;;11.50;5.20;;;;;;;7.25;71.43;101205.45;87872;1283;94394;-59
2022/01/15 09:01:17;;;;;;;15.30;6.30;;;;;;;6.72;71.02;101203.06;87825;1283;77744;-56
2022/01/15 09:03:26;;;;;;;12.60;5.40;;;;;;;6.04;71.66;101205.89;87690;1283;82240;-64
2022/01/15 09:05:34;;;;;;;11.20;5.20;;;;;;;5.93;72.17;101212.65;87834;1283;101251;-64
2022/01/15 09:07:42;;;;;;;12.90;6.40;;;;;;;6.02;72.43;101210.69;87838;1283;89345;-64
2022/01/15 09:09:48;;;;;;;13.50;6.20;;;;;;;6.60;72.04;101205.67;87833;1282;94905;-57
2022/01/15 09:11:54;;;;;;;12.80;5.50;;;;;;;6.96;71.51;101209.89;87684;1283;81043;-56
2022/01/15 09:13:59;;;;;;;11.30;5.20;;;;;;;7.34;71.29;101203.88;87808;1282;81888;-65
2022/01/15 09:16:06;;;;;;;13.80;6.10;;;;;;;7.81;71.18;101209.58;87851;1283;99461;-63
2022/01/15 09:18:12;;;;;;;14.50;5.50;;;;;;;8.52;70.20;101210.45;87840;1283;88211;-63
2022/01/15 09:20:18;;;;;;;13.10;4.80;;;;;;;8.75;69.88;101217.37;87841;1283;94776;-63
2022/01/15 09:22:24;;;;;;;11.70;5.40;;;;;;;8.90;69.31;101223.50;87849;1282;81533;-65
2022/01/15 09:24:31;;;;;;;13.60;5.60;;;;;;;9.31;69.09;101226.27;87837;1282;79286;-56
2022/01/15 09:27:01;;;;;;;11.20;5.00;;;;;;;9.17;68.09;101224.95;87860;1283;100441;-57
2022/01/15 09:31:32;;;;;;;12.10;5.10;;;;;;;9.50;68.04;101231.80;87841;1283;95945;-65
2022/01/15 09:33:38;;;;;;;11.40;5.40;;;;;;;9.41;67.95;101230.77;87789;1283;79040;-57
2022/01/15 09:35:44;;;;;;;15.60;7.30;;;;;;;9.40;67.85;101232.81;87843;1283;81861;-56
2022/01/15 09:37:54;;;;;;;13.30;6.70;;;;;;;9.37;67.68;101228.85;87842;1283;100215;-54
2022/01/15 09:40:00;;;;;;;12.20;6.10;;;;;;;9.07;66.88;101230.98;87822;1283;88251;-57
2022/01/15 09:42:10;;;;;;;12.70;5.20;;;;;;;8.79;67.13;101227.93;87809;1282;93658;-57
2022/01/15 09:44:16;;;;;;;10.60;4.30;;;;;;;8.80;67.34;101227.14;87665;1283;79110;-65
2022/01/15 09:46:23;;;;;;;11.90;4.80;;;;;;;8.95;67.00;101228.79;87860;1282;80980;-64
2022/01/15 09:48:31;;;;;;;11.50;5.10;;;;;;;8.78;66.62;101222.08;87891;1283;100875;-58
2022/01/15 09:50:42;;;;;;;12.30;4.90;;;;;;;9.08;66.64;101219.60;87828;1283;88316;-56
2022/01/15 09:52:49;;;;;;;10.70;4.60;;;;;;;9.47;66.44;101219.86;87841;1283;95207;-56
2022/01/15 09:54:58;;;;;;;11.10;4.50;;;;;;;9.35;66.04;101221.67;87648;1283;79267;-64
2022/01/15 09:57:08;;;;;;;9.90;4.60;;;;;;;9.18;65.67;101220.97;87638;1283;80459;-64
2022/01/15 09:59:14;;;;;;;9.80;4.40;;;;;;;8.50;65.30;101225.91;87674;1283;99789;-64